sensor_id;sensor_type;location;lat;lon;timestamp;P1;durP1;ratioP1;P2;durP2;ratioP2
79646;SDS011;69119;41.718;21.786;2023-08-07T00:00:28;4.97;;;2.30;;
79646;SDS011;69119;41.718;21.786;2023-08-07T00:02:54;9.98;;;2.55;;
79646;SDS011;69119;41.718;21.786;2023-08-07T00:05:20;5.88;;;2.08;;
79646;SDS011;69119;41.718;21.786;2023-08-07T00:07:47;4.97;;;2.65;;
79646;SDS011;69119;41.718;21.786;2023-08-07T00:10:13;6.78;;;2.70;;
79646;SDS011;69119;41.718;21.786;2023-08-07T00:15:05;6.10;;;2.17;;
79646;SDS011;69119;41.718;21.786;2023-08-07T00:19:57;5.60;;;1.60;;
79646;SDS011;69119;41.718;21.786;2023-08-07T00:22:24;6.43;;;3.35;;
79646;SDS011;69119;41.718;21.786;2023-08-07T00:24:50;5.68;;;2.30;;
79646;SDS011;69119;41.718;21.786;2023-08-07T00:27:16;7.38;;;2.88;;
79646;SDS011;69119;41.718;21.786;2023-08-07T00:29:42;4.70;;;2.13;;
79646;SDS011;69119;41.718;21.786;2023-08-07T00:32:08;4.95;;;1.92;;
79646;SDS011;69119;41.718;21.786;2023-08-07T00:34:35;6.93;;;2.50;;
79646;SDS011;69119;41.718;21.786;2023-08-07T00:37:01;5.72;;;2.45;;
79646;SDS011;69119;41.718;21.786;2023-08-07T00:39:27;7.25;;;3.45;;
79646;SDS011;69119;41.718;21.786;2023-08-07T00:41:53;5.47;;;2.47;;
79646;SDS011;69119;41.718;21.786;2023-08-07T00:44:20;5.63;;;2.03;;
79646;SDS011;69119;41.718;21.786;2023-08-07T00:46:46;4.43;;;1.80;;
79646;SDS011;69119;41.718;21.786;2023-08-07T00:49:12;6.90;;;2.40;;
79646;SDS011;69119;41.718;21.786;2023-08-07T00:51:39;7.88;;;2.88;;
79646;SDS011;69119;41.718;21.786;2023-08-07T00:54:05;4.82;;;1.30;;
79646;SDS011;69119;41.718;21.786;2023-08-07T00:56:31;5.80;;;2.45;;
79646;SDS011;69119;41.718;21.786;2023-08-07T00:58:58;5.50;;;2.65;;
79646;SDS011;69119;41.718;21.786;2023-08-07T01:03:50;4.80;;;2.33;;
79646;SDS011;69119;41.718;21.786;2023-08-07T01:06:16;6.28;;;2.08;;
79646;SDS011;69119;41.718;21.786;2023-08-07T01:08:43;5.45;;;2.58;;
79646;SDS011;69119;41.718;21.786;2023-08-07T01:14:08;7.15;;;2.63;;
79646;SDS011;69119;41.718;21.786;2023-08-07T01:19:05;5.70;;;2.83;;
79646;SDS011;69119;41.718;21.786;2023-08-07T01:21:34;5.97;;;2.90;;
79646;SDS011;69119;41.718;21.786;2023-08-07T01:24:00;9.60;;;2.83;;
79646;SDS011;69119;41.718;21.786;2023-08-07T01:26:26;4.97;;;2.45;;
79646;SDS011;69119;41.718;21.786;2023-08-07T01:29:04;6.28;;;2.53;;
79646;SDS011;69119;41.718;21.786;2023-08-07T01:31:33;5.50;;;1.88;;
79646;SDS011;69119;41.718;21.786;2023-08-07T01:34:01;7.78;;;3.38;;
79646;SDS011;69119;41.718;21.786;2023-08-07T01:36:28;6.30;;;2.63;;
79646;SDS011;69119;41.718;21.786;2023-08-07T01:38:58;6.05;;;2.60;;
79646;SDS011;69119;41.718;21.786;2023-08-07T01:41:25;7.15;;;3.40;;
79646;SDS011;69119;41.718;21.786;2023-08-07T01:43:51;6.43;;;2.65;;
79646;SDS011;69119;41.718;21.786;2023-08-07T01:46:18;5.60;;;2.53;;
79646;SDS011;69119;41.718;21.786;2023-08-07T01:48:44;6.13;;;3.28;;
79646;SDS011;69119;41.718;21.786;2023-08-07T01:51:10;6.15;;;2.55;;
79646;SDS011;69119;41.718;21.786;2023-08-07T01:53:36;7.82;;;2.72;;
79646;SDS011;69119;41.718;21.786;2023-08-07T01:56:02;5.53;;;2.65;;
79646;SDS011;69119;41.718;21.786;2023-08-07T01:58:29;6.00;;;2.83;;
79646;SDS011;69119;41.718;21.786;2023-08-07T02:00:55;6.60;;;3.00;;
79646;SDS011;69119;41.718;21.786;2023-08-07T02:03:21;5.57;;;1.95;;
79646;SDS011;69119;41.718;21.786;2023-08-07T02:05:47;6.15;;;3.45;;
79646;SDS011;69119;41.718;21.786;2023-08-07T02:08:13;6.45;;;2.90;;
79646;SDS011;69119;41.718;21.786;2023-08-07T02:10:39;7.45;;;4.35;;
79646;SDS011;69119;41.718;21.786;2023-08-07T02:13:06;7.40;;;3.00;;
79646;SDS011;69119;41.718;21.786;2023-08-07T02:15:32;7.28;;;2.88;;
79646;SDS011;69119;41.718;21.786;2023-08-07T02:17:58;5.30;;;2.85;;
79646;SDS011;69119;41.718;21.786;2023-08-07T02:20:24;6.20;;;2.00;;
79646;SDS011;69119;41.718;21.786;2023-08-07T02:22:50;6.45;;;2.88;;
79646;SDS011;69119;41.718;21.786;2023-08-07T02:25:16;5.30;;;2.92;;
79646;SDS011;69119;41.718;21.786;2023-08-07T02:27:42;5.65;;;3.40;;
79646;SDS011;69119;41.718;21.786;2023-08-07T02:30:08;6.72;;;3.00;;
79646;SDS011;69119;41.718;21.786;2023-08-07T02:32:34;6.07;;;2.97;;
79646;SDS011;69119;41.718;21.786;2023-08-07T02:35:00;5.70;;;2.72;;
79646;SDS011;69119;41.718;21.786;2023-08-07T02:37:26;6.53;;;2.55;;
79646;SDS011;69119;41.718;21.786;2023-08-07T02:39:52;5.65;;;2.55;;
79646;SDS011;69119;41.718;21.786;2023-08-07T02:42:19;5.28;;;3.35;;
79646;SDS011;69119;41.718;21.786;2023-08-07T02:44:45;7.47;;;2.40;;
79646;SDS011;69119;41.718;21.786;2023-08-07T02:47:11;6.78;;;3.47;;
79646;SDS011;69119;41.718;21.786;2023-08-07T02:49:37;4.97;;;2.10;;
79646;SDS011;69119;41.718;21.786;2023-08-07T02:52:03;5.93;;;2.45;;
79646;SDS011;69119;41.718;21.786;2023-08-07T02:54:29;6.28;;;2.88;;
79646;SDS011;69119;41.718;21.786;2023-08-07T02:56:56;5.72;;;2.72;;
79646;SDS011;69119;41.718;21.786;2023-08-07T02:59:23;6.03;;;2.78;;
79646;SDS011;69119;41.718;21.786;2023-08-07T03:01:49;5.43;;;2.45;;
79646;SDS011;69119;41.718;21.786;2023-08-07T03:04:15;5.05;;;3.00;;
79646;SDS011;69119;41.718;21.786;2023-08-07T03:06:41;5.43;;;2.90;;
79646;SDS011;69119;41.718;21.786;2023-08-07T03:09:07;6.88;;;3.10;;
79646;SDS011;69119;41.718;21.786;2023-08-07T03:11:34;6.70;;;1.40;;
79646;SDS011;69119;41.718;21.786;2023-08-07T03:14:00;5.78;;;2.55;;
79646;SDS011;69119;41.718;21.786;2023-08-07T03:16:26;7.07;;;2.70;;
79646;SDS011;69119;41.718;21.786;2023-08-07T03:18:52;5.32;;;2.88;;
79646;SDS011;69119;41.718;21.786;2023-08-07T03:21:18;6.68;;;2.78;;
79646;SDS011;69119;41.718;21.786;2023-08-07T03:23:44;5.50;;;3.35;;
79646;SDS011;69119;41.718;21.786;2023-08-07T03:26:11;6.00;;;3.25;;
79646;SDS011;69119;41.718;21.786;2023-08-07T03:28:37;9.43;;;3.03;;
79646;SDS011;69119;41.718;21.786;2023-08-07T03:31:04;5.78;;;3.15;;
79646;SDS011;69119;41.718;21.786;2023-08-07T03:33:30;6.95;;;3.92;;
79646;SDS011;69119;41.718;21.786;2023-08-07T03:35:56;6.00;;;3.17;;
79646;SDS011;69119;41.718;21.786;2023-08-07T03:38:22;5.68;;;3.25;;
79646;SDS011;69119;41.718;21.786;2023-08-07T03:40:48;6.88;;;2.95;;
79646;SDS011;69119;41.718;21.786;2023-08-07T03:43:14;5.72;;;3.10;;
79646;SDS011;69119;41.718;21.786;2023-08-07T03:45:40;7.05;;;3.35;;
79646;SDS011;69119;41.718;21.786;2023-08-07T03:48:06;5.88;;;2.78;;
79646;SDS011;69119;41.718;21.786;2023-08-07T03:50:32;9.15;;;3.03;;
79646;SDS011;69119;41.718;21.786;2023-08-07T03:53:05;6.93;;;3.28;;
79646;SDS011;69119;41.718;21.786;2023-08-07T03:55:32;7.60;;;3.10;;
79646;SDS011;69119;41.718;21.786;2023-08-07T03:57:58;7.55;;;2.53;;
79646;SDS011;69119;41.718;21.786;2023-08-07T04:00:24;7.28;;;2.50;;
79646;SDS011;69119;41.718;21.786;2023-08-07T04:02:50;6.60;;;2.58;;
79646;SDS011;69119;41.718;21.786;2023-08-07T04:05:16;5.57;;;2.08;;
79646;SDS011;69119;41.718;21.786;2023-08-07T04:07:42;5.25;;;2.80;;
79646;SDS011;69119;41.718;21.786;2023-08-07T04:10:08;8.40;;;2.00;;
79646;SDS011;69119;41.718;21.786;2023-08-07T04:12:34;7.05;;;3.50;;
79646;SDS011;69119;41.718;21.786;2023-08-07T04:15:00;5.43;;;2.67;;
79646;SDS011;69119;41.718;21.786;2023-08-07T04:17:26;9.80;;;3.00;;
79646;SDS011;69119;41.718;21.786;2023-08-07T04:19:52;5.97;;;2.60;;
79646;SDS011;69119;41.718;21.786;2023-08-07T04:22:18;6.25;;;2.80;;
79646;SDS011;69119;41.718;21.786;2023-08-07T04:24:45;8.93;;;3.40;;
79646;SDS011;69119;41.718;21.786;2023-08-07T04:27:11;7.03;;;3.55;;
79646;SDS011;69119;41.718;21.786;2023-08-07T04:29:37;5.68;;;3.45;;
79646;SDS011;69119;41.718;21.786;2023-08-07T04:32:03;6.80;;;3.13;;
79646;SDS011;69119;41.718;21.786;2023-08-07T04:34:29;7.53;;;3.17;;
79646;SDS011;69119;41.718;21.786;2023-08-07T04:36:55;8.05;;;3.25;;
79646;SDS011;69119;41.718;21.786;2023-08-07T04:39:21;9.35;;;3.72;;
79646;SDS011;69119;41.718;21.786;2023-08-07T04:41:48;7.55;;;2.85;;
79646;SDS011;69119;41.718;21.786;2023-08-07T04:44:16;6.22;;;3.72;;
79646;SDS011;69119;41.718;21.786;2023-08-07T04:46:42;7.07;;;3.17;;
79646;SDS011;69119;41.718;21.786;2023-08-07T04:49:09;6.40;;;2.83;;
79646;SDS011;69119;41.718;21.786;2023-08-07T04:51:35;8.38;;;3.45;;
79646;SDS011;69119;41.718;21.786;2023-08-07T04:56:27;8.02;;;3.55;;
79646;SDS011;69119;41.718;21.786;2023-08-07T04:58:53;7.45;;;2.80;;
79646;SDS011;69119;41.718;21.786;2023-08-07T05:01:19;7.50;;;2.83;;
79646;SDS011;69119;41.718;21.786;2023-08-07T05:03:46;6.82;;;3.20;;
79646;SDS011;69119;41.718;21.786;2023-08-07T05:06:12;6.38;;;2.53;;
79646;SDS011;69119;41.718;21.786;2023-08-07T05:08:38;7.32;;;2.72;;
79646;SDS011;69119;41.718;21.786;2023-08-07T05:11:04;6.35;;;1.83;;
79646;SDS011;69119;41.718;21.786;2023-08-07T05:13:30;7.13;;;2.70;;
79646;SDS011;69119;41.718;21.786;2023-08-07T05:15:56;7.43;;;2.88;;
79646;SDS011;69119;41.718;21.786;2023-08-07T05:18:22;4.95;;;2.20;;
79646;SDS011;69119;41.718;21.786;2023-08-07T05:20:48;6.10;;;2.60;;
79646;SDS011;69119;41.718;21.786;2023-08-07T05:23:14;6.93;;;2.83;;
79646;SDS011;69119;41.718;21.786;2023-08-07T05:25:40;5.93;;;2.05;;
79646;SDS011;69119;41.718;21.786;2023-08-07T05:30:32;6.00;;;3.05;;
79646;SDS011;69119;41.718;21.786;2023-08-07T05:32:58;5.68;;;3.33;;
79646;SDS011;69119;41.718;21.786;2023-08-07T05:35:24;5.15;;;2.45;;
79646;SDS011;69119;41.718;21.786;2023-08-07T05:37:50;5.28;;;1.40;;
79646;SDS011;69119;41.718;21.786;2023-08-07T05:40:16;5.45;;;2.20;;
79646;SDS011;69119;41.718;21.786;2023-08-07T05:42:43;4.65;;;1.73;;
79646;SDS011;69119;41.718;21.786;2023-08-07T05:45:09;5.68;;;2.95;;
79646;SDS011;69119;41.718;21.786;2023-08-07T05:47:35;5.07;;;1.80;;
79646;SDS011;69119;41.718;21.786;2023-08-07T05:50:01;4.20;;;1.73;;
79646;SDS011;69119;41.718;21.786;2023-08-07T05:52:27;5.05;;;1.38;;
79646;SDS011;69119;41.718;21.786;2023-08-07T05:54:54;6.28;;;1.80;;
79646;SDS011;69119;41.718;21.786;2023-08-07T05:57:20;4.30;;;1.67;;
79646;SDS011;69119;41.718;21.786;2023-08-07T05:59:46;4.93;;;2.25;;
79646;SDS011;69119;41.718;21.786;2023-08-07T06:02:12;6.05;;;2.17;;
79646;SDS011;69119;41.718;21.786;2023-08-07T06:04:38;5.20;;;1.98;;
79646;SDS011;69119;41.718;21.786;2023-08-07T06:07:05;6.03;;;2.35;;
79646;SDS011;69119;41.718;21.786;2023-08-07T06:09:32;7.93;;;1.92;;
79646;SDS011;69119;41.718;21.786;2023-08-07T06:11:58;5.80;;;2.28;;
79646;SDS011;69119;41.718;21.786;2023-08-07T06:14:24;5.30;;;1.35;;
79646;SDS011;69119;41.718;21.786;2023-08-07T06:19:16;5.25;;;2.05;;
79646;SDS011;69119;41.718;21.786;2023-08-07T06:21:43;6.13;;;1.13;;
79646;SDS011;69119;41.718;21.786;2023-08-07T06:24:09;6.53;;;2.30;;
79646;SDS011;69119;41.718;21.786;2023-08-07T06:26:35;5.00;;;1.75;;
79646;SDS011;69119;41.718;21.786;2023-08-07T06:29:01;4.95;;;1.63;;
79646;SDS011;69119;41.718;21.786;2023-08-07T06:31:27;5.18;;;2.03;;
79646;SDS011;69119;41.718;21.786;2023-08-07T06:33:53;4.65;;;1.80;;
79646;SDS011;69119;41.718;21.786;2023-08-07T06:36:19;5.50;;;1.88;;
79646;SDS011;69119;41.718;21.786;2023-08-07T06:38:45;4.30;;;1.30;;
79646;SDS011;69119;41.718;21.786;2023-08-07T06:41:12;5.93;;;2.70;;
79646;SDS011;69119;41.718;21.786;2023-08-07T06:43:38;5.07;;;1.55;;
79646;SDS011;69119;41.718;21.786;2023-08-07T06:46:04;5.00;;;1.63;;
79646;SDS011;69119;41.718;21.786;2023-08-07T06:48:30;4.40;;;1.55;;
79646;SDS011;69119;41.718;21.786;2023-08-07T06:50:56;5.28;;;1.77;;
79646;SDS011;69119;41.718;21.786;2023-08-07T06:53:22;6.75;;;2.00;;
79646;SDS011;69119;41.718;21.786;2023-08-07T06:55:48;4.75;;;1.60;;
79646;SDS011;69119;41.718;21.786;2023-08-07T06:58:14;6.00;;;1.60;;
79646;SDS011;69119;41.718;21.786;2023-08-07T07:00:40;5.07;;;1.80;;
79646;SDS011;69119;41.718;21.786;2023-08-07T07:03:06;3.90;;;1.52;;
79646;SDS011;69119;41.718;21.786;2023-08-07T07:05:34;5.65;;;1.52;;
79646;SDS011;69119;41.718;21.786;2023-08-07T07:08:01;4.45;;;1.27;;
79646;SDS011;69119;41.718;21.786;2023-08-07T07:10:27;4.70;;;2.03;;
79646;SDS011;69119;41.718;21.786;2023-08-07T07:12:53;4.55;;;1.00;;
79646;SDS011;69119;41.718;21.786;2023-08-07T07:15:20;4.03;;;1.42;;
79646;SDS011;69119;41.718;21.786;2023-08-07T07:17:46;5.38;;;1.77;;
79646;SDS011;69119;41.718;21.786;2023-08-07T07:20:12;4.38;;;1.77;;
79646;SDS011;69119;41.718;21.786;2023-08-07T07:22:38;6.10;;;1.80;;
79646;SDS011;69119;41.718;21.786;2023-08-07T07:25:05;4.97;;;1.73;;
79646;SDS011;69119;41.718;21.786;2023-08-07T07:27:31;4.70;;;1.42;;
79646;SDS011;69119;41.718;21.786;2023-08-07T07:29:57;4.18;;;1.50;;
79646;SDS011;69119;41.718;21.786;2023-08-07T07:32:23;4.22;;;2.25;;
79646;SDS011;69119;41.718;21.786;2023-08-07T07:34:51;4.20;;;1.67;;
79646;SDS011;69119;41.718;21.786;2023-08-07T07:37:17;4.45;;;1.35;;
79646;SDS011;69119;41.718;21.786;2023-08-07T07:39:43;4.93;;;1.63;;
79646;SDS011;69119;41.718;21.786;2023-08-07T07:42:09;3.92;;;0.90;;
79646;SDS011;69119;41.718;21.786;2023-08-07T07:44:35;4.00;;;1.83;;
79646;SDS011;69119;41.718;21.786;2023-08-07T07:47:01;4.85;;;1.52;;
79646;SDS011;69119;41.718;21.786;2023-08-07T07:49:27;4.80;;;1.65;;
79646;SDS011;69119;41.718;21.786;2023-08-07T07:51:53;4.65;;;1.70;;
79646;SDS011;69119;41.718;21.786;2023-08-07T07:54:19;4.57;;;1.65;;
79646;SDS011;69119;41.718;21.786;2023-08-07T07:56:45;5.00;;;1.55;;
79646;SDS011;69119;41.718;21.786;2023-08-07T07:59:12;6.07;;;2.30;;
79646;SDS011;69119;41.718;21.786;2023-08-07T08:01:38;5.65;;;1.70;;
79646;SDS011;69119;41.718;21.786;2023-08-07T08:04:04;4.22;;;1.40;;
79646;SDS011;69119;41.718;21.786;2023-08-07T08:06:31;4.80;;;1.70;;
79646;SDS011;69119;41.718;21.786;2023-08-07T08:08:57;5.45;;;2.05;;
79646;SDS011;69119;41.718;21.786;2023-08-07T08:11:24;5.95;;;2.10;;
79646;SDS011;69119;41.718;21.786;2023-08-07T08:13:50;5.18;;;1.80;;
79646;SDS011;69119;41.718;21.786;2023-08-07T08:16:16;4.97;;;1.98;;
79646;SDS011;69119;41.718;21.786;2023-08-07T08:18:42;8.82;;;2.38;;
79646;SDS011;69119;41.718;21.786;2023-08-07T08:21:08;6.72;;;2.75;;
79646;SDS011;69119;41.718;21.786;2023-08-07T08:23:34;6.72;;;2.33;;
79646;SDS011;69119;41.718;21.786;2023-08-07T08:26:01;5.95;;;1.60;;
79646;SDS011;69119;41.718;21.786;2023-08-07T08:28:27;4.47;;;1.77;;
79646;SDS011;69119;41.718;21.786;2023-08-07T08:30:53;5.38;;;2.03;;
79646;SDS011;69119;41.718;21.786;2023-08-07T08:33:19;4.20;;;1.65;;
79646;SDS011;69119;41.718;21.786;2023-08-07T08:35:45;5.43;;;1.45;;
79646;SDS011;69119;41.718;21.786;2023-08-07T08:38:11;3.95;;;1.48;;
79646;SDS011;69119;41.718;21.786;2023-08-07T08:40:38;4.72;;;1.73;;
79646;SDS011;69119;41.718;21.786;2023-08-07T08:43:05;4.60;;;2.13;;
79646;SDS011;69119;41.718;21.786;2023-08-07T08:45:31;4.15;;;1.52;;
79646;SDS011;69119;41.718;21.786;2023-08-07T08:48:01;5.55;;;2.10;;
79646;SDS011;69119;41.718;21.786;2023-08-07T08:50:28;6.13;;;1.70;;
79646;SDS011;69119;41.718;21.786;2023-08-07T08:52:55;5.38;;;1.60;;
79646;SDS011;69119;41.718;21.786;2023-08-07T08:55:21;4.15;;;1.73;;
79646;SDS011;69119;41.718;21.786;2023-08-07T08:57:48;4.93;;;1.45;;
79646;SDS011;69119;41.718;21.786;2023-08-07T09:00:18;4.85;;;1.40;;
79646;SDS011;69119;41.718;21.786;2023-08-07T09:02:48;4.35;;;1.27;;
79646;SDS011;69119;41.718;21.786;2023-08-07T09:05:15;6.38;;;1.90;;
79646;SDS011;69119;41.718;21.786;2023-08-07T09:07:41;4.80;;;1.35;;
79646;SDS011;69119;41.718;21.786;2023-08-07T09:10:07;4.53;;;1.63;;
79646;SDS011;69119;41.718;21.786;2023-08-07T09:12:36;4.15;;;0.90;;
79646;SDS011;69119;41.718;21.786;2023-08-07T09:15:04;5.60;;;1.88;;
79646;SDS011;69119;41.718;21.786;2023-08-07T09:17:33;6.30;;;2.20;;
79646;SDS011;69119;41.718;21.786;2023-08-07T09:20:00;5.03;;;1.63;;
79646;SDS011;69119;41.718;21.786;2023-08-07T09:22:29;5.28;;;1.85;;
79646;SDS011;69119;41.718;21.786;2023-08-07T09:24:55;5.32;;;1.48;;
79646;SDS011;69119;41.718;21.786;2023-08-07T09:27:24;4.63;;;1.42;;
79646;SDS011;69119;41.718;21.786;2023-08-07T09:29:51;4.18;;;1.25;;
79646;SDS011;69119;41.718;21.786;2023-08-07T09:32:20;5.65;;;1.70;;
79646;SDS011;69119;41.718;21.786;2023-08-07T09:34:48;5.10;;;1.55;;
79646;SDS011;69119;41.718;21.786;2023-08-07T09:37:14;5.35;;;1.23;;
79646;SDS011;69119;41.718;21.786;2023-08-07T09:39:41;5.18;;;1.50;;
79646;SDS011;69119;41.718;21.786;2023-08-07T09:42:13;4.03;;;0.90;;
79646;SDS011;69119;41.718;21.786;2023-08-07T09:44:40;4.18;;;1.33;;
79646;SDS011;69119;41.718;21.786;2023-08-07T09:47:13;5.40;;;1.73;;
79646;SDS011;69119;41.718;21.786;2023-08-07T09:49:39;5.78;;;1.40;;
79646;SDS011;69119;41.718;21.786;2023-08-07T09:52:06;5.28;;;1.83;;
79646;SDS011;69119;41.718;21.786;2023-08-07T09:54:35;6.93;;;1.50;;
79646;SDS011;69119;41.718;21.786;2023-08-07T09:57:02;4.30;;;0.82;;
79646;SDS011;69119;41.718;21.786;2023-08-07T09:59:29;6.55;;;1.75;;
79646;SDS011;69119;41.718;21.786;2023-08-07T10:01:55;5.10;;;1.02;;
79646;SDS011;69119;41.718;21.786;2023-08-07T10:04:21;5.65;;;1.20;;
79646;SDS011;69119;41.718;21.786;2023-08-07T10:06:48;5.75;;;1.20;;
79646;SDS011;69119;41.718;21.786;2023-08-07T10:09:14;5.18;;;1.45;;
79646;SDS011;69119;41.718;21.786;2023-08-07T10:11:41;4.78;;;1.35;;
79646;SDS011;69119;41.718;21.786;2023-08-07T10:14:10;4.47;;;1.73;;
79646;SDS011;69119;41.718;21.786;2023-08-07T10:16:36;5.53;;;1.70;;
79646;SDS011;69119;41.718;21.786;2023-08-07T10:19:05;5.97;;;1.20;;
79646;SDS011;69119;41.718;21.786;2023-08-07T10:21:32;5.28;;;1.33;;
79646;SDS011;69119;41.718;21.786;2023-08-07T10:23:59;5.20;;;1.25;;
79646;SDS011;69119;41.718;21.786;2023-08-07T10:26:26;4.43;;;1.35;;
79646;SDS011;69119;41.718;21.786;2023-08-07T10:28:52;4.68;;;1.30;;
79646;SDS011;69119;41.718;21.786;2023-08-07T10:31:18;5.20;;;1.58;;
79646;SDS011;69119;41.718;21.786;2023-08-07T10:33:46;5.03;;;1.98;;
79646;SDS011;69119;41.718;21.786;2023-08-07T10:36:12;5.20;;;1.70;;
79646;SDS011;69119;41.718;21.786;2023-08-07T10:38:38;5.13;;;1.90;;
79646;SDS011;69119;41.718;21.786;2023-08-07T10:43:36;5.50;;;1.80;;
79646;SDS011;69119;41.718;21.786;2023-08-07T10:46:04;5.47;;;1.58;;
79646;SDS011;69119;41.718;21.786;2023-08-07T10:48:30;5.47;;;1.67;;
79646;SDS011;69119;41.718;21.786;2023-08-07T10:51:03;4.95;;;0.82;;
79646;SDS011;69119;41.718;21.786;2023-08-07T10:53:30;4.72;;;1.58;;
79646;SDS011;69119;41.718;21.786;2023-08-07T10:55:57;5.07;;;1.42;;
79646;SDS011;69119;41.718;21.786;2023-08-07T10:58:24;4.03;;;0.90;;
79646;SDS011;69119;41.718;21.786;2023-08-07T11:01:40;4.32;;;1.63;;
79646;SDS011;69119;41.718;21.786;2023-08-07T11:03:36;6.03;;;1.45;;
79646;SDS011;69119;41.718;21.786;2023-08-07T11:06:02;5.07;;;1.45;;
79646;SDS011;69119;41.718;21.786;2023-08-07T11:08:28;4.82;;;1.02;;
79646;SDS011;69119;41.718;21.786;2023-08-07T11:10:56;4.93;;;0.85;;
79646;SDS011;69119;41.718;21.786;2023-08-07T11:13:23;6.13;;;1.00;;
79646;SDS011;69119;41.718;21.786;2023-08-07T11:15:50;6.20;;;2.22;;
79646;SDS011;69119;41.718;21.786;2023-08-07T11:18:16;4.15;;;1.17;;
79646;SDS011;69119;41.718;21.786;2023-08-07T11:20:44;5.97;;;1.77;;
79646;SDS011;69119;41.718;21.786;2023-08-07T11:23:10;4.40;;;1.40;;
79646;SDS011;69119;41.718;21.786;2023-08-07T11:25:36;4.78;;;1.83;;
79646;SDS011;69119;41.718;21.786;2023-08-07T11:28:03;4.65;;;1.50;;
79646;SDS011;69119;41.718;21.786;2023-08-07T11:30:29;5.15;;;1.95;;
79646;SDS011;69119;41.718;21.786;2023-08-07T11:32:57;4.70;;;1.65;;
79646;SDS011;69119;41.718;21.786;2023-08-07T11:35:23;5.60;;;2.00;;
79646;SDS011;69119;41.718;21.786;2023-08-07T11:37:49;6.32;;;1.70;;
79646;SDS011;69119;41.718;21.786;2023-08-07T11:40:15;7.10;;;2.28;;
79646;SDS011;69119;41.718;21.786;2023-08-07T11:42:41;4.63;;;1.40;;
79646;SDS011;69119;41.718;21.786;2023-08-07T11:45:08;5.90;;;1.80;;
79646;SDS011;69119;41.718;21.786;2023-08-07T11:47:34;7.78;;;1.63;;
79646;SDS011;69119;41.718;21.786;2023-08-07T11:50:01;5.82;;;1.67;;
79646;SDS011;69119;41.718;21.786;2023-08-07T11:52:27;4.93;;;1.42;;
79646;SDS011;69119;41.718;21.786;2023-08-07T11:54:53;5.15;;;1.38;;
79646;SDS011;69119;41.718;21.786;2023-08-07T11:57:22;5.25;;;1.75;;
79646;SDS011;69119;41.718;21.786;2023-08-07T11:59:51;4.97;;;1.75;;
79646;SDS011;69119;41.718;21.786;2023-08-07T12:02:22;4.90;;;1.75;;
79646;SDS011;69119;41.718;21.786;2023-08-07T12:04:48;4.40;;;1.48;;
79646;SDS011;69119;41.718;21.786;2023-08-07T12:07:16;5.53;;;1.42;;
79646;SDS011;69119;41.718;21.786;2023-08-07T12:09:44;4.60;;;1.52;;
79646;SDS011;69119;41.718;21.786;2023-08-07T12:12:11;3.97;;;1.50;;
79646;SDS011;69119;41.718;21.786;2023-08-07T12:14:38;4.65;;;1.05;;
79646;SDS011;69119;41.718;21.786;2023-08-07T12:17:04;4.68;;;1.35;;
79646;SDS011;69119;41.718;21.786;2023-08-07T12:19:38;4.43;;;1.27;;
79646;SDS011;69119;41.718;21.786;2023-08-07T12:22:06;5.40;;;1.40;;
79646;SDS011;69119;41.718;21.786;2023-08-07T12:24:34;5.05;;;1.33;;
79646;SDS011;69119;41.718;21.786;2023-08-07T12:27:00;5.43;;;1.73;;
79646;SDS011;69119;41.718;21.786;2023-08-07T12:29:26;4.93;;;1.60;;
79646;SDS011;69119;41.718;21.786;2023-08-07T12:31:54;4.93;;;1.65;;
79646;SDS011;69119;41.718;21.786;2023-08-07T12:34:20;4.22;;;1.30;;
79646;SDS011;69119;41.718;21.786;2023-08-07T12:36:46;4.60;;;1.50;;
79646;SDS011;69119;41.718;21.786;2023-08-07T12:39:12;5.25;;;1.67;;
79646;SDS011;69119;41.718;21.786;2023-08-07T12:41:39;5.00;;;1.33;;
79646;SDS011;69119;41.718;21.786;2023-08-07T12:44:05;5.00;;;1.85;;
79646;SDS011;69119;41.718;21.786;2023-08-07T12:46:31;5.50;;;1.60;;
79646;SDS011;69119;41.718;21.786;2023-08-07T12:48:57;5.55;;;1.45;;
79646;SDS011;69119;41.718;21.786;2023-08-07T12:51:23;4.18;;;1.70;;
79646;SDS011;69119;41.718;21.786;2023-08-07T12:53:49;5.28;;;1.73;;
79646;SDS011;69119;41.718;21.786;2023-08-07T12:56:16;5.35;;;1.38;;
79646;SDS011;69119;41.718;21.786;2023-08-07T12:58:42;7.18;;;1.33;;
79646;SDS011;69119;41.718;21.786;2023-08-07T13:01:09;5.72;;;1.85;;
79646;SDS011;69119;41.718;21.786;2023-08-07T13:03:35;5.22;;;1.63;;
79646;SDS011;69119;41.718;21.786;2023-08-07T13:06:01;4.97;;;1.48;;
79646;SDS011;69119;41.718;21.786;2023-08-07T13:08:30;6.30;;;2.72;;
79646;SDS011;69119;41.718;21.786;2023-08-07T13:10:58;3.95;;;1.42;;
79646;SDS011;69119;41.718;21.786;2023-08-07T13:13:24;5.40;;;1.40;;
79646;SDS011;69119;41.718;21.786;2023-08-07T13:15:53;5.38;;;1.88;;
79646;SDS011;69119;41.718;21.786;2023-08-07T13:18:19;4.28;;;0.90;;
79646;SDS011;69119;41.718;21.786;2023-08-07T13:20:45;5.47;;;1.42;;
79646;SDS011;69119;41.718;21.786;2023-08-07T13:23:11;4.85;;;1.73;;
79646;SDS011;69119;41.718;21.786;2023-08-07T13:25:37;5.70;;;1.52;;
79646;SDS011;69119;41.718;21.786;2023-08-07T13:28:03;5.40;;;1.65;;
79646;SDS011;69119;41.718;21.786;2023-08-07T13:30:34;5.93;;;1.75;;
79646;SDS011;69119;41.718;21.786;2023-08-07T13:33:00;5.18;;;1.70;;
79646;SDS011;69119;41.718;21.786;2023-08-07T13:35:26;5.03;;;1.42;;
79646;SDS011;69119;41.718;21.786;2023-08-07T13:37:52;5.30;;;2.03;;
79646;SDS011;69119;41.718;21.786;2023-08-07T13:40:18;4.55;;;1.10;;
79646;SDS011;69119;41.718;21.786;2023-08-07T13:42:46;4.18;;;1.30;;
79646;SDS011;69119;41.718;21.786;2023-08-07T13:45:12;5.72;;;1.20;;
79646;SDS011;69119;41.718;21.786;2023-08-07T13:47:38;6.10;;;1.30;;
79646;SDS011;69119;41.718;21.786;2023-08-07T13:50:05;4.85;;;1.77;;
79646;SDS011;69119;41.718;21.786;2023-08-07T13:52:37;5.18;;;1.95;;
79646;SDS011;69119;41.718;21.786;2023-08-07T13:55:03;4.97;;;1.55;;
79646;SDS011;69119;41.718;21.786;2023-08-07T13:57:29;5.38;;;1.50;;
79646;SDS011;69119;41.718;21.786;2023-08-07T13:59:55;5.70;;;1.48;;
79646;SDS011;69119;41.718;21.786;2023-08-07T14:02:21;5.75;;;1.98;;
79646;SDS011;69119;41.718;21.786;2023-08-07T14:04:48;8.13;;;1.30;;
79646;SDS011;69119;41.718;21.786;2023-08-07T14:07:14;5.40;;;1.35;;
79646;SDS011;69119;41.718;21.786;2023-08-07T14:09:40;5.97;;;2.42;;
79646;SDS011;69119;41.718;21.786;2023-08-07T14:12:06;5.63;;;1.80;;
79646;SDS011;69119;41.718;21.786;2023-08-07T14:14:32;5.13;;;1.60;;
79646;SDS011;69119;41.718;21.786;2023-08-07T14:16:59;7.47;;;2.38;;
79646;SDS011;69119;41.718;21.786;2023-08-07T14:19:26;6.88;;;2.70;;
79646;SDS011;69119;41.718;21.786;2023-08-07T14:21:53;6.18;;;2.22;;
79646;SDS011;69119;41.718;21.786;2023-08-07T14:24:19;4.88;;;1.88;;
79646;SDS011;69119;41.718;21.786;2023-08-07T14:26:45;6.32;;;1.73;;
79646;SDS011;69119;41.718;21.786;2023-08-07T14:29:12;6.22;;;1.77;;
79646;SDS011;69119;41.718;21.786;2023-08-07T14:31:38;4.78;;;1.30;;
79646;SDS011;69119;41.718;21.786;2023-08-07T14:34:04;5.60;;;1.48;;
79646;SDS011;69119;41.718;21.786;2023-08-07T14:36:31;5.65;;;1.65;;
79646;SDS011;69119;41.718;21.786;2023-08-07T14:38:57;6.63;;;1.98;;
79646;SDS011;69119;41.718;21.786;2023-08-07T14:41:23;8.57;;;2.03;;
79646;SDS011;69119;41.718;21.786;2023-08-07T14:43:49;7.00;;;2.03;;
79646;SDS011;69119;41.718;21.786;2023-08-07T14:46:15;5.57;;;1.55;;
79646;SDS011;69119;41.718;21.786;2023-08-07T14:48:43;4.85;;;1.35;;
79646;SDS011;69119;41.718;21.786;2023-08-07T14:51:09;5.85;;;1.80;;